sensor_id;sensor_type;location;lat;lon;timestamp;P1;durP1;ratioP1;P2;durP2;ratioP2
8291;SDS011;4184;42.724;23.308;2022-07-29T00:01:23;6.27;;;5.73;;
8291;SDS011;4184;42.724;23.308;2022-07-29T00:03:51;6.43;;;5.83;;
8291;SDS011;4184;42.724;23.308;2022-07-29T00:06:19;6.63;;;6.03;;
8291;SDS011;4184;42.724;23.308;2022-07-29T00:08:47;6.60;;;6.07;;
8291;SDS011;4184;42.724;23.308;2022-07-29T00:11:14;6.10;;;5.50;;
8291;SDS011;4184;42.724;23.308;2022-07-29T00:13:42;6.47;;;5.87;;
8291;SDS011;4184;42.724;23.308;2022-07-29T00:16:11;7.10;;;6.40;;
8291;SDS011;4184;42.724;23.308;2022-07-29T00:18:38;7.07;;;5.77;;
8291;SDS011;4184;42.724;23.308;2022-07-29T00:21:06;6.50;;;5.90;;
8291;SDS011;4184;42.724;23.308;2022-07-29T00:23:33;6.83;;;6.23;;
8291;SDS011;4184;42.724;23.308;2022-07-29T00:26:01;7.07;;;6.47;;
8291;SDS011;4184;42.724;23.308;2022-07-29T00:28:29;7.97;;;6.50;;
8291;SDS011;4184;42.724;23.308;2022-07-29T00:30:56;6.80;;;6.20;;
8291;SDS011;4184;42.724;23.308;2022-07-29T00:33:25;7.13;;;6.43;;
8291;SDS011;4184;42.724;23.308;2022-07-29T00:35:54;7.10;;;6.50;;
8291;SDS011;4184;42.724;23.308;2022-07-29T00:38:21;12.97;;;6.47;;
8291;SDS011;4184;42.724;23.308;2022-07-29T00:40:48;7.67;;;6.83;;
8291;SDS011;4184;42.724;23.308;2022-07-29T00:43:16;8.00;;;7.20;;
8291;SDS011;4184;42.724;23.308;2022-07-29T00:45:44;7.33;;;6.63;;
8291;SDS011;4184;42.724;23.308;2022-07-29T00:48:12;8.13;;;6.93;;
8291;SDS011;4184;42.724;23.308;2022-07-29T00:50:41;7.07;;;6.47;;
8291;SDS011;4184;42.724;23.308;2022-07-29T00:53:08;6.93;;;6.23;;
8291;SDS011;4184;42.724;23.308;2022-07-29T00:55:38;6.67;;;6.17;;
8291;SDS011;4184;42.724;23.308;2022-07-29T00:58:06;7.20;;;6.60;;
8291;SDS011;4184;42.724;23.308;2022-07-29T01:00:34;7.70;;;6.90;;
8291;SDS011;4184;42.724;23.308;2022-07-29T01:03:01;7.47;;;6.77;;
8291;SDS011;4184;42.724;23.308;2022-07-29T01:05:29;6.93;;;6.33;;
8291;SDS011;4184;42.724;23.308;2022-07-29T01:07:58;6.60;;;6.00;;
8291;SDS011;4184;42.724;23.308;2022-07-29T01:10:26;7.53;;;6.83;;
8291;SDS011;4184;42.724;23.308;2022-07-29T01:12:57;7.73;;;6.93;;
8291;SDS011;4184;42.724;23.308;2022-07-29T01:15:25;6.80;;;6.10;;
8291;SDS011;4184;42.724;23.308;2022-07-29T01:17:56;6.90;;;6.30;;
8291;SDS011;4184;42.724;23.308;2022-07-29T01:20:34;6.87;;;6.30;;
8291;SDS011;4184;42.724;23.308;2022-07-29T01:23:25;7.33;;;6.73;;
8291;SDS011;4184;42.724;23.308;2022-07-29T01:26:22;7.40;;;6.80;;
8291;SDS011;4184;42.724;23.308;2022-07-29T01:29:01;8.33;;;6.67;;
8291;SDS011;4184;42.724;23.308;2022-07-29T01:31:35;7.37;;;6.67;;
8291;SDS011;4184;42.724;23.308;2022-07-29T01:34:08;7.43;;;6.73;;
8291;SDS011;4184;42.724;23.308;2022-07-29T01:36:45;7.27;;;6.57;;
8291;SDS011;4184;42.724;23.308;2022-07-29T01:39:18;6.40;;;5.83;;
8291;SDS011;4184;42.724;23.308;2022-07-29T01:41:50;6.70;;;6.17;;
8291;SDS011;4184;42.724;23.308;2022-07-29T01:44:30;7.77;;;6.97;;
8291;SDS011;4184;42.724;23.308;2022-07-29T01:47:01;7.43;;;6.73;;
8291;SDS011;4184;42.724;23.308;2022-07-29T01:49:36;7.10;;;6.40;;
8291;SDS011;4184;42.724;23.308;2022-07-29T01:52:11;7.43;;;6.73;;
8291;SDS011;4184;42.724;23.308;2022-07-29T01:54:45;7.87;;;6.83;;
8291;SDS011;4184;42.724;23.308;2022-07-29T01:57:17;7.87;;;7.13;;
8291;SDS011;4184;42.724;23.308;2022-07-29T01:59:48;7.20;;;6.50;;
8291;SDS011;4184;42.724;23.308;2022-07-29T02:02:18;8.00;;;7.20;;
8291;SDS011;4184;42.724;23.308;2022-07-29T02:04:47;7.20;;;6.60;;
8291;SDS011;4184;42.724;23.308;2022-07-29T02:07:19;7.47;;;6.77;;
8291;SDS011;4184;42.724;23.308;2022-07-29T02:09:47;8.10;;;7.40;;
8291;SDS011;4184;42.724;23.308;2022-07-29T02:12:17;7.77;;;6.60;;
8291;SDS011;4184;42.724;23.308;2022-07-29T02:14:47;7.90;;;7.20;;
8291;SDS011;4184;42.724;23.308;2022-07-29T02:17:20;8.00;;;7.20;;
8291;SDS011;4184;42.724;23.308;2022-07-29T02:19:51;7.30;;;6.57;;
8291;SDS011;4184;42.724;23.308;2022-07-29T02:22:22;10.90;;;7.73;;
8291;SDS011;4184;42.724;23.308;2022-07-29T02:24:53;8.07;;;6.90;;
8291;SDS011;4184;42.724;23.308;2022-07-29T02:27:21;7.70;;;7.00;;
8291;SDS011;4184;42.724;23.308;2022-07-29T02:29:53;8.10;;;7.30;;
8291;SDS011;4184;42.724;23.308;2022-07-29T02:32:24;8.33;;;7.60;;
8291;SDS011;4184;42.724;23.308;2022-07-29T02:34:54;8.40;;;7.60;;
8291;SDS011;4184;42.724;23.308;2022-07-29T02:37:23;8.03;;;7.33;;
8291;SDS011;4184;42.724;23.308;2022-07-29T02:39:54;8.40;;;7.60;;
8291;SDS011;4184;42.724;23.308;2022-07-29T02:42:23;8.43;;;7.53;;
8291;SDS011;4184;42.724;23.308;2022-07-29T02:44:54;7.77;;;7.07;;
8291;SDS011;4184;42.724;23.308;2022-07-29T02:47:23;8.47;;;7.53;;
8291;SDS011;4184;42.724;23.308;2022-07-29T02:49:55;8.87;;;8.07;;
8291;SDS011;4184;42.724;23.308;2022-07-29T02:52:26;8.47;;;7.30;;
8291;SDS011;4184;42.724;23.308;2022-07-29T02:54:58;8.20;;;7.40;;
8291;SDS011;4184;42.724;23.308;2022-07-29T02:57:30;8.60;;;7.73;;
8291;SDS011;4184;42.724;23.308;2022-07-29T03:00:04;7.73;;;7.00;;
8291;SDS011;4184;42.724;23.308;2022-07-29T03:02:35;8.30;;;7.50;;
8291;SDS011;4184;42.724;23.308;2022-07-29T03:05:08;8.97;;;8.17;;
8291;SDS011;4184;42.724;23.308;2022-07-29T03:07:39;10.03;;;7.90;;
8291;SDS011;4184;42.724;23.308;2022-07-29T03:10:09;11.13;;;8.17;;
8291;SDS011;4184;42.724;23.308;2022-07-29T03:12:38;8.60;;;7.80;;
8291;SDS011;4184;42.724;23.308;2022-07-29T03:15:09;9.10;;;8.13;;
8291;SDS011;4184;42.724;23.308;2022-07-29T03:17:37;9.20;;;8.30;;
8291;SDS011;4184;42.724;23.308;2022-07-29T03:20:06;10.40;;;8.30;;
8291;SDS011;4184;42.724;23.308;2022-07-29T03:22:38;8.53;;;7.77;;
8291;SDS011;4184;42.724;23.308;2022-07-29T03:25:09;8.87;;;7.97;;
8291;SDS011;4184;42.724;23.308;2022-07-29T03:27:37;8.30;;;7.40;;
8291;SDS011;4184;42.724;23.308;2022-07-29T03:30:05;8.50;;;7.57;;
8291;SDS011;4184;42.724;23.308;2022-07-29T03:32:36;7.67;;;6.97;;
8291;SDS011;4184;42.724;23.308;2022-07-29T03:35:04;7.87;;;7.17;;
8291;SDS011;4184;42.724;23.308;2022-07-29T03:37:33;8.10;;;7.30;;
8291;SDS011;4184;42.724;23.308;2022-07-29T03:40:02;8.30;;;7.50;;
8291;SDS011;4184;42.724;23.308;2022-07-29T03:42:33;7.80;;;7.10;;
8291;SDS011;4184;42.724;23.308;2022-07-29T03:45:05;8.17;;;7.47;;
8291;SDS011;4184;42.724;23.308;2022-07-29T03:47:37;8.00;;;7.30;;
8291;SDS011;4184;42.724;23.308;2022-07-29T03:50:10;8.47;;;6.77;;
8291;SDS011;4184;42.724;23.308;2022-07-29T03:52:41;7.70;;;7.00;;
8291;SDS011;4184;42.724;23.308;2022-07-29T03:55:09;8.13;;;7.43;;
8291;SDS011;4184;42.724;23.308;2022-07-29T03:57:37;9.20;;;7.03;;
8291;SDS011;4184;42.724;23.308;2022-07-29T04:00:06;7.37;;;6.67;;
8291;SDS011;4184;42.724;23.308;2022-07-29T04:02:36;7.73;;;7.03;;
8291;SDS011;4184;42.724;23.308;2022-07-29T04:05:05;7.57;;;6.87;;
8291;SDS011;4184;42.724;23.308;2022-07-29T04:07:39;7.40;;;6.70;;
8291;SDS011;4184;42.724;23.308;2022-07-29T04:10:06;9.03;;;7.57;;
8291;SDS011;4184;42.724;23.308;2022-07-29T04:12:34;8.97;;;7.77;;
8291;SDS011;4184;42.724;23.308;2022-07-29T04:15:02;8.57;;;7.67;;
8291;SDS011;4184;42.724;23.308;2022-07-29T04:17:31;7.57;;;6.87;;
8291;SDS011;4184;42.724;23.308;2022-07-29T04:19:59;7.53;;;6.83;;
8291;SDS011;4184;42.724;23.308;2022-07-29T04:22:27;7.13;;;6.43;;
8291;SDS011;4184;42.724;23.308;2022-07-29T04:24:54;7.77;;;6.97;;
8291;SDS011;4184;42.724;23.308;2022-07-29T04:27:22;7.73;;;6.90;;
8291;SDS011;4184;42.724;23.308;2022-07-29T04:29:49;7.37;;;6.67;;
8291;SDS011;4184;42.724;23.308;2022-07-29T04:32:17;6.80;;;6.10;;
8291;SDS011;4184;42.724;23.308;2022-07-29T04:34:46;7.03;;;6.43;;
8291;SDS011;4184;42.724;23.308;2022-07-29T04:37:14;6.90;;;6.30;;
8291;SDS011;4184;42.724;23.308;2022-07-29T04:39:42;6.23;;;5.73;;
8291;SDS011;4184;42.724;23.308;2022-07-29T04:42:09;6.13;;;5.63;;
8291;SDS011;4184;42.724;23.308;2022-07-29T04:44:37;6.90;;;6.30;;
8291;SDS011;4184;42.724;23.308;2022-07-29T04:47:07;7.60;;;6.03;;
8291;SDS011;4184;42.724;23.308;2022-07-29T04:49:37;7.17;;;6.57;;
8291;SDS011;4184;42.724;23.308;2022-07-29T04:52:07;6.63;;;5.80;;
8291;SDS011;4184;42.724;23.308;2022-07-29T04:54:34;6.27;;;5.77;;
8291;SDS011;4184;42.724;23.308;2022-07-29T04:57:02;5.50;;;5.00;;
8291;SDS011;4184;42.724;23.308;2022-07-29T04:59:29;6.57;;;4.80;;
8291;SDS011;4184;42.724;23.308;2022-07-29T05:01:57;5.47;;;4.90;;
8291;SDS011;4184;42.724;23.308;2022-07-29T05:04:24;5.47;;;4.90;;
8291;SDS011;4184;42.724;23.308;2022-07-29T05:06:52;4.90;;;4.50;;
8291;SDS011;4184;42.724;23.308;2022-07-29T05:09:21;4.90;;;4.50;;
8291;SDS011;4184;42.724;23.308;2022-07-29T05:11:48;4.83;;;4.37;;
8291;SDS011;4184;42.724;23.308;2022-07-29T05:14:16;5.40;;;4.90;;
8291;SDS011;4184;42.724;23.308;2022-07-29T05:16:43;4.87;;;4.47;;
8291;SDS011;4184;42.724;23.308;2022-07-29T05:19:11;4.20;;;3.90;;
8291;SDS011;4184;42.724;23.308;2022-07-29T05:21:39;4.70;;;4.30;;
8291;SDS011;4184;42.724;23.308;2022-07-29T05:24:07;4.87;;;4.37;;
8291;SDS011;4184;42.724;23.308;2022-07-29T05:26:36;4.60;;;4.20;;
8291;SDS011;4184;42.724;23.308;2022-07-29T05:29:04;5.40;;;4.90;;
8291;SDS011;4184;42.724;23.308;2022-07-29T05:31:32;5.43;;;4.70;;
8291;SDS011;4184;42.724;23.308;2022-07-29T05:33:59;5.43;;;4.40;;
8291;SDS011;4184;42.724;23.308;2022-07-29T05:36:27;4.53;;;4.07;;
8291;SDS011;4184;42.724;23.308;2022-07-29T05:38:55;4.90;;;4.50;;
8291;SDS011;4184;42.724;23.308;2022-07-29T05:41:22;8.03;;;4.60;;
8291;SDS011;4184;42.724;23.308;2022-07-29T05:43:52;5.00;;;4.50;;
8291;SDS011;4184;42.724;23.308;2022-07-29T05:46:20;5.50;;;4.77;;
8291;SDS011;4184;42.724;23.308;2022-07-29T05:48:47;4.67;;;4.27;;
8291;SDS011;4184;42.724;23.308;2022-07-29T05:51:15;4.70;;;4.20;;
8291;SDS011;4184;42.724;23.308;2022-07-29T05:53:42;5.33;;;4.83;;
8291;SDS011;4184;42.724;23.308;2022-07-29T05:56:10;6.30;;;4.50;;
8291;SDS011;4184;42.724;23.308;2022-07-29T05:58:37;3.97;;;3.60;;
8291;SDS011;4184;42.724;23.308;2022-07-29T06:01:06;5.13;;;4.67;;
8291;SDS011;4184;42.724;23.308;2022-07-29T06:03:34;4.87;;;4.47;;
8291;SDS011;4184;42.724;23.308;2022-07-29T06:06:02;4.93;;;4.53;;
8291;SDS011;4184;42.724;23.308;2022-07-29T06:08:31;6.37;;;4.20;;
8291;SDS011;4184;42.724;23.308;2022-07-29T06:10:58;4.43;;;4.03;;
8291;SDS011;4184;42.724;23.308;2022-07-29T06:13:26;5.63;;;3.83;;
8291;SDS011;4184;42.724;23.308;2022-07-29T06:15:53;5.37;;;4.23;;
8291;SDS011;4184;42.724;23.308;2022-07-29T06:18:23;4.70;;;4.20;;
8291;SDS011;4184;42.724;23.308;2022-07-29T06:20:50;4.10;;;3.70;;
8291;SDS011;4184;42.724;23.308;2022-07-29T06:23:18;6.03;;;4.20;;
8291;SDS011;4184;42.724;23.308;2022-07-29T06:25:46;3.93;;;3.60;;
8291;SDS011;4184;42.724;23.308;2022-07-29T06:28:14;4.13;;;3.73;;
8291;SDS011;4184;42.724;23.308;2022-07-29T06:30:41;3.87;;;3.57;;
8291;SDS011;4184;42.724;23.308;2022-07-29T06:33:09;3.80;;;3.50;;
8291;SDS011;4184;42.724;23.308;2022-07-29T06:35:45;4.27;;;3.53;;
8291;SDS011;4184;42.724;23.308;2022-07-29T06:38:14;3.97;;;3.40;;
8291;SDS011;4184;42.724;23.308;2022-07-29T06:40:42;3.70;;;3.40;;
8291;SDS011;4184;42.724;23.308;2022-07-29T06:43:29;3.73;;;3.30;;
8291;SDS011;4184;42.724;23.308;2022-07-29T06:46:02;3.00;;;2.70;;
8291;SDS011;4184;42.724;23.308;2022-07-29T06:48:31;3.13;;;2.83;;
8291;SDS011;4184;42.724;23.308;2022-07-29T06:51:01;3.87;;;3.40;;
8291;SDS011;4184;42.724;23.308;2022-07-29T06:53:29;3.23;;;2.80;;
8291;SDS011;4184;42.724;23.308;2022-07-29T06:55:57;5.43;;;3.60;;
8291;SDS011;4184;42.724;23.308;2022-07-29T06:58:25;3.40;;;3.10;;
8291;SDS011;4184;42.724;23.308;2022-07-29T07:00:53;3.23;;;2.93;;
8291;SDS011;4184;42.724;23.308;2022-07-29T07:03:21;4.47;;;3.20;;
8291;SDS011;4184;42.724;23.308;2022-07-29T07:05:49;3.00;;;2.70;;
8291;SDS011;4184;42.724;23.308;2022-07-29T07:08:20;3.00;;;2.70;;
8291;SDS011;4184;42.724;23.308;2022-07-29T07:10:48;2.47;;;2.27;;
8291;SDS011;4184;42.724;23.308;2022-07-29T07:13:16;3.03;;;2.70;;
8291;SDS011;4184;42.724;23.308;2022-07-29T07:15:44;6.00;;;2.63;;
8291;SDS011;4184;42.724;23.308;2022-07-29T07:18:13;2.93;;;2.60;;
8291;SDS011;4184;42.724;23.308;2022-07-29T07:20:42;2.77;;;2.53;;
8291;SDS011;4184;42.724;23.308;2022-07-29T07:23:09;2.70;;;2.50;;
8291;SDS011;4184;42.724;23.308;2022-07-29T07:25:39;2.50;;;2.30;;
8291;SDS011;4184;42.724;23.308;2022-07-29T07:28:07;2.60;;;2.40;;
8291;SDS011;4184;42.724;23.308;2022-07-29T07:30:34;2.47;;;2.20;;
8291;SDS011;4184;42.724;23.308;2022-07-29T07:33:02;4.23;;;2.50;;
8291;SDS011;4184;42.724;23.308;2022-07-29T07:35:30;3.50;;;3.07;;
8291;SDS011;4184;42.724;23.308;2022-07-29T07:37:58;2.60;;;2.40;;
8291;SDS011;4184;42.724;23.308;2022-07-29T07:40:25;2.63;;;2.43;;
8291;SDS011;4184;42.724;23.308;2022-07-29T07:42:54;3.10;;;2.70;;
8291;SDS011;4184;42.724;23.308;2022-07-29T07:45:22;2.67;;;2.47;;
8291;SDS011;4184;42.724;23.308;2022-07-29T07:47:50;2.60;;;2.40;;
8291;SDS011;4184;42.724;23.308;2022-07-29T07:50:17;3.00;;;2.70;;
8291;SDS011;4184;42.724;23.308;2022-07-29T07:52:45;3.87;;;2.57;;
8291;SDS011;4184;42.724;23.308;2022-07-29T07:55:14;2.77;;;2.40;;
8291;SDS011;4184;42.724;23.308;2022-07-29T07:57:42;2.40;;;2.20;;
8291;SDS011;4184;42.724;23.308;2022-07-29T08:00:15;3.00;;;2.80;;
8291;SDS011;4184;42.724;23.308;2022-07-29T08:02:43;2.87;;;2.63;;
8291;SDS011;4184;42.724;23.308;2022-07-29T08:05:11;3.10;;;2.80;;
8291;SDS011;4184;42.724;23.308;2022-07-29T08:07:42;2.70;;;2.50;;
8291;SDS011;4184;42.724;23.308;2022-07-29T08:10:10;4.10;;;2.87;;
8291;SDS011;4184;42.724;23.308;2022-07-29T08:12:38;2.87;;;2.33;;
8291;SDS011;4184;42.724;23.308;2022-07-29T08:15:07;2.50;;;2.30;;
8291;SDS011;4184;42.724;23.308;2022-07-29T08:17:36;2.67;;;2.47;;
8291;SDS011;4184;42.724;23.308;2022-07-29T08:20:04;2.50;;;2.30;;
8291;SDS011;4184;42.724;23.308;2022-07-29T08:22:32;2.70;;;2.50;;
8291;SDS011;4184;42.724;23.308;2022-07-29T08:25:00;2.50;;;2.30;;
8291;SDS011;4184;42.724;23.308;2022-07-29T08:27:27;2.70;;;2.37;;
8291;SDS011;4184;42.724;23.308;2022-07-29T08:29:57;3.40;;;2.63;;
8291;SDS011;4184;42.724;23.308;2022-07-29T08:32:24;3.13;;;2.40;;
8291;SDS011;4184;42.724;23.308;2022-07-29T08:34:54;2.73;;;2.53;;
8291;SDS011;4184;42.724;23.308;2022-07-29T08:37:22;2.30;;;2.10;;
8291;SDS011;4184;42.724;23.308;2022-07-29T08:39:49;2.50;;;2.30;;
8291;SDS011;4184;42.724;23.308;2022-07-29T08:42:17;2.40;;;2.20;;
8291;SDS011;4184;42.724;23.308;2022-07-29T08:44:45;2.70;;;2.10;;
8291;SDS011;4184;42.724;23.308;2022-07-29T08:47:13;2.63;;;2.33;;
8291;SDS011;4184;42.724;23.308;2022-07-29T08:49:41;2.33;;;2.13;;
8291;SDS011;4184;42.724;23.308;2022-07-29T08:52:11;3.30;;;2.20;;
8291;SDS011;4184;42.724;23.308;2022-07-29T08:54:40;3.10;;;2.33;;
8291;SDS011;4184;42.724;23.308;2022-07-29T08:57:10;2.77;;;2.30;;
8291;SDS011;4184;42.724;23.308;2022-07-29T08:59:40;2.40;;;2.20;;
8291;SDS011;4184;42.724;23.308;2022-07-29T09:02:12;2.77;;;2.50;;
8291;SDS011;4184;42.724;23.308;2022-07-29T09:04:46;2.50;;;2.30;;
8291;SDS011;4184;42.724;23.308;2022-07-29T09:07:16;2.60;;;2.40;;
8291;SDS011;4184;42.724;23.308;2022-07-29T09:09:44;2.60;;;2.40;;
8291;SDS011;4184;42.724;23.308;2022-07-29T09:12:12;2.23;;;2.07;;
8291;SDS011;4184;42.724;23.308;2022-07-29T09:14:40;4.47;;;2.50;;
8291;SDS011;4184;42.724;23.308;2022-07-29T09:17:08;2.30;;;2.10;;
8291;SDS011;4184;42.724;23.308;2022-07-29T09:19:36;3.07;;;2.63;;
8291;SDS011;4184;42.724;23.308;2022-07-29T09:22:04;2.20;;;2.10;;
8291;SDS011;4184;42.724;23.308;2022-07-29T09:24:39;2.60;;;2.40;;
8291;SDS011;4184;42.724;23.308;2022-07-29T09:27:09;2.33;;;2.13;;
8291;SDS011;4184;42.724;23.308;2022-07-29T09:29:43;2.50;;;2.30;;
8291;SDS011;4184;42.724;23.308;2022-07-29T09:32:11;4.83;;;2.33;;
8291;SDS011;4184;42.724;23.308;2022-07-29T09:34:39;2.70;;;2.50;;
8291;SDS011;4184;42.724;23.308;2022-07-29T09:37:07;2.60;;;2.40;;
8291;SDS011;4184;42.724;23.308;2022-07-29T09:39:35;2.93;;;2.60;;
8291;SDS011;4184;42.724;23.308;2022-07-29T09:42:10;2.70;;;2.50;;
8291;SDS011;4184;42.724;23.308;2022-07-29T09:44:43;2.37;;;2.17;;
8291;SDS011;4184;42.724;23.308;2022-07-29T09:47:13;2.53;;;2.33;;
8291;SDS011;4184;42.724;23.308;2022-07-29T09:49:51;2.60;;;2.40;;
8291;SDS011;4184;42.724;23.308;2022-07-29T09:52:20;2.40;;;2.20;;
8291;SDS011;4184;42.724;23.308;2022-07-29T09:54:49;2.53;;;2.33;;
8291;SDS011;4184;42.724;23.308;2022-07-29T09:57:22;2.83;;;2.63;;
8291;SDS011;4184;42.724;23.308;2022-07-29T09:59:58;4.90;;;2.77;;
8291;SDS011;4184;42.724;23.308;2022-07-29T10:02:28;4.77;;;2.70;;
8291;SDS011;4184;42.724;23.308;2022-07-29T10:04:56;3.70;;;2.97;;
8291;SDS011;4184;42.724;23.308;2022-07-29T10:07:24;4.23;;;2.33;;
8291;SDS011;4184;42.724;23.308;2022-07-29T10:09:54;2.80;;;2.60;;
8291;SDS011;4184;42.724;23.308;2022-07-29T10:12:23;2.60;;;2.40;;
8291;SDS011;4184;42.724;23.308;2022-07-29T10:14:51;3.70;;;2.83;;
8291;SDS011;4184;42.724;23.308;2022-07-29T10:17:19;3.00;;;2.80;;
8291;SDS011;4184;42.724;23.308;2022-07-29T10:19:48;3.73;;;2.80;;
8291;SDS011;4184;42.724;23.308;2022-07-29T10:22:15;2.90;;;2.60;;
8291;SDS011;4184;42.724;23.308;2022-07-29T10:24:43;3.17;;;2.87;;
8291;SDS011;4184;42.724;23.308;2022-07-29T10:27:12;2.60;;;2.40;;
8291;SDS011;4184;42.724;23.308;2022-07-29T10:29:40;2.83;;;2.63;;
8291;SDS011;4184;42.724;23.308;2022-07-29T10:32:10;2.97;;;2.57;;
8291;SDS011;4184;42.724;23.308;2022-07-29T10:34:55;2.70;;;2.50;;
8291;SDS011;4184;42.724;23.308;2022-07-29T10:37:37;2.90;;;2.70;;
8291;SDS011;4184;42.724;23.308;2022-07-29T10:40:22;3.03;;;2.70;;
8291;SDS011;4184;42.724;23.308;2022-07-29T10:43:16;2.80;;;2.57;;
8291;SDS011;4184;42.724;23.308;2022-07-29T10:45:48;3.13;;;2.87;;
8291;SDS011;4184;42.724;23.308;2022-07-29T10:48:21;2.87;;;2.67;;
8291;SDS011;4184;42.724;23.308;2022-07-29T10:50:52;2.60;;;2.40;;
8291;SDS011;4184;42.724;23.308;2022-07-29T10:53:21;2.37;;;2.17;;
8291;SDS011;4184;42.724;23.308;2022-07-29T10:55:50;2.57;;;2.37;;
8291;SDS011;4184;42.724;23.308;2022-07-29T10:58:20;3.93;;;2.80;;
8291;SDS011;4184;42.724;23.308;2022-07-29T11:00:50;2.80;;;2.60;;
8291;SDS011;4184;42.724;23.308;2022-07-29T11:06:13;2.67;;;2.47;;
8291;SDS011;4184;42.724;23.308;2022-07-29T11:08:40;3.20;;;2.80;;
8291;SDS011;4184;42.724;23.308;2022-07-29T11:14:08;3.70;;;2.60;;
8291;SDS011;4184;42.724;23.308;2022-07-29T11:19:27;2.70;;;2.50;;
8291;SDS011;4184;42.724;23.308;2022-07-29T11:21:55;3.00;;;2.80;;
8291;SDS011;4184;42.724;23.308;2022-07-29T11:24:24;3.00;;;2.73;;
8291;SDS011;4184;42.724;23.308;2022-07-29T11:27:09;2.80;;;2.60;;
8291;SDS011;4184;42.724;23.308;2022-07-29T11:29:48;2.87;;;2.67;;
8291;SDS011;4184;42.724;23.308;2022-07-29T11:32:18;2.70;;;2.50;;
8291;SDS011;4184;42.724;23.308;2022-07-29T11:34:46;3.37;;;2.97;;
8291;SDS011;4184;42.724;23.308;2022-07-29T11:37:22;2.97;;;2.60;;
8291;SDS011;4184;42.724;23.308;2022-07-29T11:42:50;3.83;;;2.63;;
8291;SDS011;4184;42.724;23.308;2022-07-29T11:45:22;3.00;;;2.70;;
8291;SDS011;4184;42.724;23.308;2022-07-29T11:47:54;3.07;;;2.87;;
8291;SDS011;4184;42.724;23.308;2022-07-29T11:50:31;3.33;;;3.13;;
8291;SDS011;4184;42.724;23.308;2022-07-29T11:53:01;3.83;;;3.13;;
8291;SDS011;4184;42.724;23.308;2022-07-29T11:55:35;3.40;;;3.00;;
8291;SDS011;4184;42.724;23.308;2022-07-29T11:58:05;3.30;;;3.00;;
8291;SDS011;4184;42.724;23.308;2022-07-29T12:00:34;3.30;;;3.00;;
8291;SDS011;4184;42.724;23.308;2022-07-29T12:03:04;3.40;;;3.10;;
8291;SDS011;4184;42.724;23.308;2022-07-29T12:05:37;3.37;;;3.07;;
8291;SDS011;4184;42.724;23.308;2022-07-29T12:08:10;3.13;;;2.83;;
8291;SDS011;4184;42.724;23.308;2022-07-29T12:10:40;3.10;;;2.90;;
8291;SDS011;4184;42.724;23.308;2022-07-29T12:13:08;3.90;;;3.10;;
8291;SDS011;4184;42.724;23.308;2022-07-29T12:15:38;3.23;;;3.00;;
8291;SDS011;4184;42.724;23.308;2022-07-29T12:18:10;3.57;;;3.27;;
8291;SDS011;4184;42.724;23.308;2022-07-29T12:20:39;3.10;;;2.90;;
8291;SDS011;4184;42.724;23.308;2022-07-29T12:23:07;3.33;;;3.03;;
8291;SDS011;4184;42.724;23.308;2022-07-29T12:25:37;3.93;;;3.63;;
8291;SDS011;4184;42.724;23.308;2022-07-29T12:28:06;3.30;;;3.10;;
8291;SDS011;4184;42.724;23.308;2022-07-29T12:30:35;3.50;;;3.20;;
8291;SDS011;4184;42.724;23.308;2022-07-29T12:33:13;4.37;;;3.20;;
8291;SDS011;4184;42.724;23.308;2022-07-29T12:35:43;3.70;;;3.40;;
8291;SDS011;4184;42.724;23.308;2022-07-29T12:38:13;3.23;;;2.93;;
8291;SDS011;4184;42.724;23.308;2022-07-29T12:40:43;3.73;;;3.43;;
8291;SDS011;4184;42.724;23.308;2022-07-29T12:43:12;3.87;;;3.57;;
8291;SDS011;4184;42.724;23.308;2022-07-29T12:45:43;3.87;;;3.57;;
8291;SDS011;4184;42.724;23.308;2022-07-29T12:48:12;4.23;;;3.70;;
8291;SDS011;4184;42.724;23.308;2022-07-29T12:50:53;4.00;;;3.60;;
8291;SDS011;4184;42.724;23.308;2022-07-29T12:53:22;3.83;;;3.53;;
8291;SDS011;4184;42.724;23.308;2022-07-29T12:55:50;4.40;;;4.00;;
8291;SDS011;4184;42.724;23.308;2022-07-29T12:58:26;4.10;;;3.70;;
8291;SDS011;4184;42.724;23.308;2022-07-29T13:01:02;3.70;;;3.40;;
8291;SDS011;4184;42.724;23.308;2022-07-29T13:03:44;3.83;;;3.53;;
8291;SDS011;4184;42.724;23.308;2022-07-29T13:06:30;3.80;;;3.50;;
8291;SDS011;4184;42.724;23.308;2022-07-29T13:09:00;4.33;;;3.93;;
8291;SDS011;4184;42.724;23.308;2022-07-29T13:11:30;4.20;;;3.60;;
8291;SDS011;4184;42.724;23.308;2022-07-29T13:13:59;4.10;;;3.80;;
8291;SDS011;4184;42.724;23.308;2022-07-29T13:16:28;4.30;;;3.90;;
8291;SDS011;4184;42.724;23.308;2022-07-29T13:19:05;3.63;;;3.33;;
8291;SDS011;4184;42.724;23.308;2022-07-29T13:21:36;3.60;;;3.30;;
8291;SDS011;4184;42.724;23.308;2022-07-29T13:24:05;3.97;;;3.67;;
8291;SDS011;4184;42.724;23.308;2022-07-29T13:26:33;4.37;;;3.97;;
8291;SDS011;4184;42.724;23.308;2022-07-29T13:29:05;4.10;;;3.70;;
8291;SDS011;4184;42.724;23.308;2022-07-29T13:31:34;3.67;;;3.40;;
8291;SDS011;4184;42.724;23.308;2022-07-29T13:34:02;4.00;;;3.43;;
8291;SDS011;4184;42.724;23.308;2022-07-29T13:36:30;3.80;;;3.50;;
8291;SDS011;4184;42.724;23.308;2022-07-29T13:38:58;5.30;;;3.60;;
8291;SDS011;4184;42.724;23.308;2022-07-29T13:41:27;3.87;;;3.57;;
8291;SDS011;4184;42.724;23.308;2022-07-29T13:43:55;3.60;;;3.30;;
8291;SDS011;4184;42.724;23.308;2022-07-29T13:46:22;3.70;;;3.40;;
8291;SDS011;4184;42.724;23.308;2022-07-29T13:48:51;3.37;;;3.17;;
8291;SDS011;4184;42.724;23.308;2022-07-29T13:51:19;3.93;;;3.63;;
8291;SDS011;4184;42.724;23.308;2022-07-29T13:53:46;3.63;;;3.33;;
8291;SDS011;4184;42.724;23.308;2022-07-29T13:56:14;3.53;;;3.23;;
8291;SDS011;4184;42.724;23.308;2022-07-29T13:58:41;4.10;;;3.70;;
8291;SDS011;4184;42.724;23.308;2022-07-29T14:01:09;4.10;;;3.60;;
8291;SDS011;4184;42.724;23.308;2022-07-29T14:03:37;3.60;;;3.30;;
8291;SDS011;4184;42.724;23.308;2022-07-29T14:06:07;6.20;;;3.60;;
8291;SDS011;4184;42.724;23.308;2022-07-29T14:08:35;3.93;;;3.60;;
8291;SDS011;4184;42.724;23.308;2022-07-29T14:11:03;4.63;;;3.90;;
8291;SDS011;4184;42.724;23.308;2022-07-29T14:13:30;4.27;;;3.67;;
8291;SDS011;4184;42.724;23.308;2022-07-29T14:15:58;4.00;;;3.70;;
8291;SDS011;4184;42.724;23.308;2022-07-29T14:18:25;3.30;;;3.00;;
8291;SDS011;4184;42.724;23.308;2022-07-29T14:20:53;3.73;;;3.43;;
8291;SDS011;4184;42.724;23.308;2022-07-29T14:23:22;4.73;;;3.70;;
8291;SDS011;4184;42.724;23.308;2022-07-29T14:25:49;3.60;;;3.30;;
8291;SDS011;4184;42.724;23.308;2022-07-29T14:28:17;4.20;;;3.80;;
8291;SDS011;4184;42.724;23.308;2022-07-29T14:30:45;3.83;;;3.53;;
8291;SDS011;4184;42.724;23.308;2022-07-29T14:33:12;4.30;;;3.90;;
8291;SDS011;4184;42.724;23.308;2022-07-29T14:35:40;3.97;;;3.67;;
8291;SDS011;4184;42.724;23.308;2022-07-29T14:38:08;5.00;;;4.03;;
8291;SDS011;4184;42.724;23.308;2022-07-29T14:40:37;3.60;;;3.33;;
8291;SDS011;4184;42.724;23.308;2022-07-29T14:43:05;3.80;;;3.50;;
8291;SDS011;4184;42.724;23.308;2022-07-29T14:45:32;4.23;;;3.83;;
8291;SDS011;4184;42.724;23.308;2022-07-29T14:48:00;4.10;;;3.70;;
8291;SDS011;4184;42.724;23.308;2022-07-29T14:50:27;4.07;;;3.67;;
8291;SDS011;4184;42.724;23.308;2022-07-29T14:52:55;4.20;;;3.80;;
8291;SDS011;4184;42.724;23.308;2022-07-29T14:55:22;3.83;;;3.53;;
8291;SDS011;4184;42.724;23.308;2022-07-29T14:57:51;3.70;;;3.40;;
8291;SDS011;4184;42.724;23.308;2022-07-29T15:00:19;3.63;;;3.30;;
8291;SDS011;4184;42.724;23.308;2022-07-29T15:02:47;4.00;;;3.70;;
8291;SDS011;4184;42.724;23.308;2022-07-29T15:05:15;4.33;;;4.03;;
8291;SDS011;4184;42.724;23.308;2022-07-29T15:07:42;3.87;;;3.47;;
8291;SDS011;4184;42.724;23.308;2022-07-29T15:10:10;3.97;;;3.67;;
8291;SDS011;4184;42.724;23.308;2022-07-29T15:12:37;3.53;;;3.23;;
8291;SDS011;4184;42.724;23.308;2022-07-29T15:15:07;3.67;;;3.37;;
8291;SDS011;4184;42.724;23.308;2022-07-29T15:17:35;4.07;;;3.50;;
8291;SDS011;4184;42.724;23.308;2022-07-29T15:20:03;3.80;;;3.50;;
8291;SDS011;4184;42.724;23.308;2022-07-29T15:22:31;3.93;;;3.57;;
8291;SDS011;4184;42.724;23.308;2022-07-29T15:24:59;4.20;;;3.90;;
8291;SDS011;4184;42.724;23.308;2022-07-29T15:27:26;4.03;;;3.73;;